Time;durP1;ratioP1;P1;durP2;ratioP2;P2;SDS_P1;SDS_P2;PMS_P1;PMS_P2;Temp;Humidity;BMP_temperature;BMP_pressure;BME280_temperature;BME280_humidity;BME280_pressure;Samples;Min_cycle;Max_cycle;Signal;HPM_P1;HPM_P2
2022/08/15 00:01:09;;;;;;;16.50;7.65;;;;;;;;;;7312247;19;162373;-13
2022/08/15 00:03:44;;;;;;;11.73;6.90;;;;;;;;;;7312566;19;163247;-13
2022/08/15 00:06:21;;;;;;;13.52;7.05;;;;;;;;;;7312309;19;154475;-14
2022/08/15 00:08:54;;;;;;;16.77;7.55;;;;;;;;;;7311034;19;154272;-13
2022/08/15 00:11:28;;;;;;;12.45;7.05;;;;;;;;;;7311044;19;162319;-14
2022/08/15 00:14:04;;;;;;;11.40;6.82;;;;;;;;;;7311093;19;163000;-13
2022/08/15 00:16:38;;;;;;;13.25;7.82;;;;;;;;;;7311415;19;154482;-14
2022/08/15 00:19:12;;;;;;;14.40;7.53;;;;;;;;;;7307053;19;154391;-14
2022/08/15 00:21:48;;;;;;;12.65;7.60;;;;;;;;;;7310409;19;161947;-14
2022/08/15 00:24:24;;;;;;;9.18;6.90;;;;;;;;;;7308550;19;163230;-14
2022/08/15 00:26:57;;;;;;;15.25;7.10;;;;;;;;;;7310263;19;154467;-14
2022/08/15 00:29:31;;;;;;;14.13;7.60;;;;;;;;;;7310922;19;154189;-13
2022/08/15 00:32:03;;;;;;;10.93;7.15;;;;;;;;;;7310110;19;162702;-14
2022/08/15 00:34:34;;;;;;;12.07;7.28;;;;;;;;;;7309526;19;163141;-14
2022/08/15 00:37:08;;;;;;;10.55;6.72;;;;;;;;;;7311628;19;154425;-13
2022/08/15 00:39:39;;;;;;;17.10;7.00;;;;;;;;;;7308777;19;154608;-13
2022/08/15 00:42:11;;;;;;;14.38;6.53;;;;;;;;;;7309432;19;162284;-14
2022/08/15 00:44:45;;;;;;;11.13;6.78;;;;;;;;;;7308743;19;163935;-14
2022/08/15 00:47:19;;;;;;;10.60;7.03;;;;;;;;;;7307114;19;154157;-14
2022/08/15 00:49:51;;;;;;;19.35;6.82;;;;;;;;;;7309830;19;154398;-13
2022/08/15 00:52:29;;;;;;;9.15;6.75;;;;;;;;;;7308590;19;162757;-13
2022/08/15 00:55:04;;;;;;;12.10;7.63;;;;;;;;;;7309063;19;163427;-14
2022/08/15 00:57:38;;;;;;;13.75;7.25;;;;;;;;;;7310975;19;154564;-14
2022/08/15 01:00:15;;;;;;;16.67;7.57;;;;;;;;;;7308203;19;154922;-14
2022/08/15 01:02:49;;;;;;;11.77;6.88;;;;;;;;;;7307299;19;162796;-14
2022/08/15 01:05:22;;;;;;;12.13;7.47;;;;;;;;;;7309117;19;162838;-14
2022/08/15 01:07:57;;;;;;;14.65;6.78;;;;;;;;;;7310265;19;154565;-13
2022/08/15 01:10:28;;;;;;;10.77;7.07;;;;;;;;;;7309359;19;154094;-14
2022/08/15 01:13:00;;;;;;;18.00;7.90;;;;;;;;;;7309774;19;162236;-14
2022/08/15 01:15:33;;;;;;;13.43;6.60;;;;;;;;;;7308760;19;163305;-14
2022/08/15 01:18:04;;;;;;;18.27;7.82;;;;;;;;;;7305875;19;154521;-14
2022/08/15 01:20:38;;;;;;;13.88;6.60;;;;;;;;;;7311698;19;153958;-13
2022/08/15 01:23:18;;;;;;;13.18;7.25;;;;;;;;;;7309032;19;162639;-14
2022/08/15 01:26:00;;;;;;;10.80;6.82;;;;;;;;;;7309532;19;163281;-14
2022/08/15 01:28:38;;;;;;;10.13;6.83;;;;;;;;;;7307477;19;154665;-14
2022/08/15 01:31:12;;;;;;;12.73;7.35;;;;;;;;;;7310580;19;154475;-14
2022/08/15 01:33:53;;;;;;;8.93;6.22;;;;;;;;;;7309401;19;162257;-14
2022/08/15 01:36:26;;;;;;;11.77;7.18;;;;;;;;;;7310867;19;163261;-14
2022/08/15 01:39:03;;;;;;;7.80;6.65;;;;;;;;;;7308684;19;154483;-14
2022/08/15 01:41:44;;;;;;;14.10;7.25;;;;;;;;;;7310011;19;154370;-14
2022/08/15 01:44:21;;;;;;;16.08;7.10;;;;;;;;;;7309251;19;162660;-14
2022/08/15 01:46:58;;;;;;;11.80;6.68;;;;;;;;;;7309125;19;163707;-14
2022/08/15 01:49:36;;;;;;;10.07;6.78;;;;;;;;;;7309366;19;154400;-14
2022/08/15 01:52:08;;;;;;;14.77;6.32;;;;;;;;;;7309532;19;154560;-14
2022/08/15 01:54:42;;;;;;;13.23;7.20;;;;;;;;;;7308494;19;162641;-14
2022/08/15 01:57:16;;;;;;;8.23;5.88;;;;;;;;;;7310224;19;162903;-14
2022/08/15 01:59:57;;;;;;;11.40;6.45;;;;;;;;;;7307052;19;154523;-14
2022/08/15 02:02:29;;;;;;;12.35;6.80;;;;;;;;;;7309210;19;154618;-14
2022/08/15 02:05:02;;;;;;;12.65;6.57;;;;;;;;;;7310202;19;162608;-14
2022/08/15 02:07:34;;;;;;;15.52;6.43;;;;;;;;;;7308748;19;162839;-14
2022/08/15 02:10:07;;;;;;;9.00;6.63;;;;;;;;;;7310423;19;154919;-14
2022/08/15 02:12:43;;;;;;;12.52;6.43;;;;;;;;;;7309227;19;154242;-14
2022/08/15 02:15:19;;;;;;;11.10;7.05;;;;;;;;;;7308558;19;162315;-14
2022/08/15 02:17:51;;;;;;;10.25;6.47;;;;;;;;;;7309815;19;162763;-14
2022/08/15 02:20:23;;;;;;;11.65;7.03;;;;;;;;;;7308082;19;154892;-14
2022/08/15 02:22:56;;;;;;;10.45;6.68;;;;;;;;;;7308406;19;154528;-14
2022/08/15 02:25:28;;;;;;;8.25;6.50;;;;;;;;;;7308225;19;162293;-14
2022/08/15 02:28:02;;;;;;;10.80;6.45;;;;;;;;;;7307217;19;162854;-14
2022/08/15 02:30:34;;;;;;;8.35;6.05;;;;;;;;;;7308556;19;154494;-14
2022/08/15 02:33:07;;;;;;;8.73;6.37;;;;;;;;;;7309456;19;154535;-14
2022/08/15 02:35:41;;;;;;;12.07;6.32;;;;;;;;;;7306792;19;162913;-20
2022/08/15 02:38:13;;;;;;;8.38;6.30;;;;;;;;;;7308142;19;163343;-14
2022/08/15 02:40:44;;;;;;;12.18;6.50;;;;;;;;;;7305148;19;155088;-14
2022/08/15 02:43:21;;;;;;;9.25;6.68;;;;;;;;;;7313938;19;154516;-14
2022/08/15 02:45:54;;;;;;;11.13;6.32;;;;;;;;;;7316197;19;162814;-14
2022/08/15 02:48:29;;;;;;;11.15;6.32;;;;;;;;;;7314269;19;162981;-14
2022/08/15 02:51:08;;;;;;;9.55;6.20;;;;;;;;;;7314185;19;154854;-14
2022/08/15 02:53:40;;;;;;;8.95;6.43;;;;;;;;;;7314334;19;154218;-14
2022/08/15 02:56:11;;;;;;;9.57;6.05;;;;;;;;;;7316323;19;162284;-13
2022/08/15 02:58:45;;;;;;;7.57;5.78;;;;;;;;;;7315646;19;162834;-14
2022/08/15 03:01:17;;;;;;;11.55;6.80;;;;;;;;;;7314136;19;154454;-14
2022/08/15 03:03:55;;;;;;;7.47;6.65;;;;;;;;;;7314313;19;154487;-14
2022/08/15 03:06:30;;;;;;;9.55;6.30;;;;;;;;;;7314032;19;162232;-14
2022/08/15 03:09:06;;;;;;;6.60;5.30;;;;;;;;;;7314446;19;162796;-14
2022/08/15 03:11:46;;;;;;;6.93;5.78;;;;;;;;;;7316002;19;154531;-16
2022/08/15 03:14:24;;;;;;;8.90;6.20;;;;;;;;;;7313326;19;154161;-14
2022/08/15 03:16:56;;;;;;;10.43;6.82;;;;;;;;;;7312809;19;162280;-14
2022/08/15 03:19:27;;;;;;;7.95;6.30;;;;;;;;;;7314021;19;162983;-14
2022/08/15 03:21:59;;;;;;;12.30;6.25;;;;;;;;;;7315320;19;154427;-14
2022/08/15 03:24:30;;;;;;;10.48;6.75;;;;;;;;;;7313064;19;154555;-14
2022/08/15 03:27:02;;;;;;;13.07;6.67;;;;;;;;;;7311837;19;162200;-14
2022/08/15 03:29:36;;;;;;;9.80;6.15;;;;;;;;;;7313331;19;164129;-14
2022/08/15 03:32:15;;;;;;;8.75;6.30;;;;;;;;;;7312680;19;154385;-14
2022/08/15 03:34:46;;;;;;;6.75;5.97;;;;;;;;;;7315252;19;154494;-14
2022/08/15 03:37:17;;;;;;;9.07;6.07;;;;;;;;;;7312764;19;162245;-14
2022/08/15 03:39:49;;;;;;;6.87;5.87;;;;;;;;;;7312065;19;163427;-14
2022/08/15 03:42:21;;;;;;;8.65;6.30;;;;;;;;;;7314903;19;154523;-14
2022/08/15 03:44:56;;;;;;;9.37;5.90;;;;;;;;;;7313294;19;154328;-14
2022/08/15 03:47:27;;;;;;;9.20;6.25;;;;;;;;;;7313295;19;162780;-14
2022/08/15 03:49:59;;;;;;;6.35;5.68;;;;;;;;;;7314242;19;163239;-14
2022/08/15 03:52:31;;;;;;;8.05;6.05;;;;;;;;;;7311931;19;154770;-14
2022/08/15 03:55:03;;;;;;;7.95;5.80;;;;;;;;;;7314886;19;154054;-14
2022/08/15 03:57:34;;;;;;;;;;;;;;;;;;7312523;19;162249;-16
2022/08/15 04:00:10;;;;;;;8.00;5.90;;;;;;;;;;7310814;19;163126;-14
2022/08/15 04:02:45;;;;;;;8.52;5.85;;;;;;;;;;7313354;19;154517;-14
2022/08/15 04:05:17;;;;;;;8.40;5.90;;;;;;;;;;7311522;19;154006;-15
2022/08/15 04:07:49;;;;;;;7.38;5.43;;;;;;;;;;7313909;19;162251;-14
2022/08/15 04:10:22;;;;;;;6.67;5.70;;;;;;;;;;7311528;19;162925;-14
2022/08/15 04:12:54;;;;;;;7.22;5.97;;;;;;;;;;7311654;19;155041;-13
2022/08/15 04:15:28;;;;;;;8.13;5.35;;;;;;;;;;7315231;19;154307;-14
2022/08/15 04:18:00;;;;;;;6.20;5.50;;;;;;;;;;7312761;19;162288;-14
2022/08/15 04:20:31;;;;;;;12.03;5.80;;;;;;;;;;7311404;19;163005;-14
2022/08/15 04:23:17;;;;;;;6.38;5.78;;;;;;;;;;7312066;19;154893;-15
2022/08/15 04:25:49;;;;;;;6.28;5.63;;;;;;;;;;7313159;19;154055;-14
2022/08/15 04:28:25;;;;;;;6.80;6.10;;;;;;;;;;7309074;19;162639;-14
2022/08/15 04:31:01;;;;;;;7.47;6.10;;;;;;;;;;7314488;19;163302;-14
2022/08/15 04:33:34;;;;;;;5.90;5.30;;;;;;;;;;7311021;19;154405;-14
2022/08/15 04:36:12;;;;;;;8.80;6.55;;;;;;;;;;7312851;19;153954;-14
2022/08/15 04:38:57;;;;;;;6.07;5.50;;;;;;;;;;7311779;19;162277;-14
2022/08/15 04:41:33;;;;;;;8.30;5.55;;;;;;;;;;7309840;19;163921;-15
2022/08/15 04:44:03;;;;;;;;;;;;;;;;;;7314035;19;154431;-14
2022/08/15 04:46:38;;;;;;;10.15;6.25;;;;;;;;;;7310347;19;153818;-14
2022/08/15 04:49:10;;;;;;;8.25;5.45;;;;;;;;;;7312201;19;162343;-14
2022/08/15 04:51:41;;;;;;;7.77;6.13;;;;;;;;;;7312305;19;162903;-14
2022/08/15 04:54:13;;;;;;;8.05;6.03;;;;;;;;;;7310784;19;154340;-14
2022/08/15 04:56:46;;;;;;;7.85;5.05;;;;;;;;;;7311027;19;154188;-15
2022/08/15 04:59:18;;;;;;;6.17;5.60;;;;;;;;;;7310813;19;162667;-14
2022/08/15 05:01:53;;;;;;;6.47;5.35;;;;;;;;;;7308716;19;162815;-14
2022/08/15 05:04:25;;;;;;;6.95;5.72;;;;;;;;;;7308301;19;154438;-14
2022/08/15 05:06:58;;;;;;;6.45;5.80;;;;;;;;;;7309948;19;154145;-14
2022/08/15 05:09:29;;;;;;;6.78;5.57;;;;;;;;;;7311468;19;162647;-14
2022/08/15 05:12:01;;;;;;;7.47;5.85;;;;;;;;;;7309840;19;163425;-15
2022/08/15 05:14:32;;;;;;;6.10;5.50;;;;;;;;;;7310008;19;154837;-14
2022/08/15 05:17:06;;;;;;;6.63;5.57;;;;;;;;;;7310929;19;154379;-14
2022/08/15 05:19:38;;;;;;;6.47;5.88;;;;;;;;;;7310319;19;162665;-14
2022/08/15 05:22:09;;;;;;;9.88;5.88;;;;;;;;;;7309324;19;163301;-14
2022/08/15 05:24:42;;;;;;;6.38;5.22;;;;;;;;;;7312091;19;154754;-14
2022/08/15 05:27:14;;;;;;;6.20;5.40;;;;;;;;;;7309320;19;154193;-14
2022/08/15 05:29:45;;;;;;;7.10;5.43;;;;;;;;;;7310393;19;162434;-14
2022/08/15 05:32:19;;;;;;;6.80;5.75;;;;;;;;;;7310756;19;162871;-14
2022/08/15 05:34:52;;;;;;;7.07;6.38;;;;;;;;;;7308962;19;154407;-14
2022/08/15 05:37:24;;;;;;;6.10;5.50;;;;;;;;;;7310222;19;154054;-13
2022/08/15 05:39:57;;;;;;;5.85;5.35;;;;;;;;;;7309372;19;162373;-14
2022/08/15 05:42:40;;;;;;;6.40;5.30;;;;;;;;;;7307074;19;162916;-14
2022/08/15 05:45:19;;;;;;;5.53;5.03;;;;;;;;;;7310050;19;154403;-14
2022/08/15 05:48:05;;;;;;;10.25;5.78;;;;;;;;;;7308413;19;154158;-14
2022/08/15 05:50:46;;;;;;;7.88;5.68;;;;;;;;;;7308487;19;162378;-14
2022/08/15 05:53:29;;;;;;;5.63;5.13;;;;;;;;;;7308786;19;163236;-14
2022/08/15 05:56:07;;;;;;;6.47;5.72;;;;;;;;;;7312278;19;154942;-14
2022/08/15 05:58:45;;;;;;;5.88;5.38;;;;;;;;;;7308593;19;154340;-14
2022/08/15 06:01:28;;;;;;;5.53;5.05;;;;;;;;;;7307338;19;163024;-14
2022/08/15 06:04:16;;;;;;;5.55;5.05;;;;;;;;;;7311852;19;162885;-14
2022/08/15 06:06:50;;;;;;;7.43;5.65;;;;;;;;;;7308533;19;154401;-14
2022/08/15 06:09:33;;;;;;;7.30;5.32;;;;;;;;;;7310421;19;153912;-14
2022/08/15 06:12:12;;;;;;;7.60;5.07;;;;;;;;;;7307891;19;162326;-14
2022/08/15 06:14:47;;;;;;;6.70;5.70;;;;;;;;;;7309571;19;163240;-14
2022/08/15 06:17:24;;;;;;;5.97;4.68;;;;;;;;;;7312897;19;154870;-14
2022/08/15 06:20:07;;;;;;;5.68;5.18;;;;;;;;;;7315188;19;154120;-14
2022/08/15 06:22:53;;;;;;;8.07;5.35;;;;;;;;;;7313220;19;162695;-14
2022/08/15 06:25:33;;;;;;;6.00;5.38;;;;;;;;;;7315246;19;163354;-14
2022/08/15 06:28:18;;;;;;;6.18;5.57;;;;;;;;;;7314706;19;154978;-14
2022/08/15 06:31:00;;;;;;;7.28;5.40;;;;;;;;;;7317384;19;153951;-14
2022/08/15 06:33:40;;;;;;;7.63;5.90;;;;;;;;;;7316553;19;162241;-14
2022/08/15 06:36:19;;;;;;;8.25;5.10;;;;;;;;;;7314849;19;162975;-14
2022/08/15 06:38:57;;;;;;;6.32;5.50;;;;;;;;;;7314023;19;154888;-14
2022/08/15 06:41:44;;;;;;;6.18;5.57;;;;;;;;;;7316869;19;154548;-14
2022/08/15 06:44:21;;;;;;;6.10;5.10;;;;;;;;;;7314647;19;162291;-23
2022/08/15 06:47:03;;;;;;;5.68;5.18;;;;;;;;;;7317639;19;163188;-14
2022/08/15 06:49:40;;;;;;;6.88;5.35;;;;;;;;;;7315201;19;154841;-15
2022/08/15 06:52:16;;;;;;;6.10;5.50;;;;;;;;;;7313830;19;154381;-15
2022/08/15 06:54:50;;;;;;;5.60;5.10;;;;;;;;;;7314799;19;162770;-14
2022/08/15 06:57:37;;;;;;;6.75;5.70;;;;;;;;;;7313335;19;162894;-14
2022/08/15 07:00:15;;;;;;;5.70;5.20;;;;;;;;;;7315767;19;154866;-14
2022/08/15 07:03:03;;;;;;;5.68;5.10;;;;;;;;;;7314093;19;154541;-15
2022/08/15 07:05:43;;;;;;;5.50;4.90;;;;;;;;;;7314758;19;162358;-14
2022/08/15 07:08:23;;;;;;;6.55;5.68;;;;;;;;;;7314332;19;162970;-15
2022/08/15 07:11:04;;;;;;;5.85;5.35;;;;;;;;;;7314204;19;154660;-14
2022/08/15 07:13:59;;;;;;;5.88;5.18;;;;;;;;;;7314211;19;154053;-15
2022/08/15 07:16:41;;;;;;;5.63;5.13;;;;;;;;;;7314808;19;162599;-14
2022/08/15 07:19:13;;;;;;;6.35;5.47;;;;;;;;;;7313704;19;163282;-15
2022/08/15 07:21:51;;;;;;;5.65;5.15;;;;;;;;;;7312758;19;154132;-15
2022/08/15 07:24:32;;;;;;;5.78;4.95;;;;;;;;;;7314976;19;153953;-15
2022/08/15 07:27:12;;;;;;;5.80;5.30;;;;;;;;;;7312014;19;162808;-14
2022/08/15 07:29:48;;;;;;;7.10;5.00;;;;;;;;;;7312524;19;163879;-15
2022/08/15 07:32:27;;;;;;;5.30;4.80;;;;;;;;;;7314049;19;154929;-15
2022/08/15 07:35:02;;;;;;;6.13;5.63;;;;;;;;;;7314289;19;154449;-14
2022/08/15 07:37:37;;;;;;;6.00;5.38;;;;;;;;;;7315062;19;162280;-15
2022/08/15 07:40:27;;;;;;;5.40;4.85;;;;;;;;;;7312080;19;162939;-14
2022/08/15 07:43:06;;;;;;;5.57;5.07;;;;;;;;;;7313893;19;154529;-14
2022/08/15 07:45:42;;;;;;;5.50;4.97;;;;;;;;;;7312143;19;154505;-15
2022/08/15 07:48:24;;;;;;;5.55;5.05;;;;;;;;;;7311949;19;162816;-15
2022/08/15 07:51:18;;;;;;;5.75;5.25;;;;;;;;;;7312221;19;163334;-15
2022/08/15 07:53:59;;;;;;;5.80;5.30;;;;;;;;;;7312929;19;154481;-14
2022/08/15 07:56:54;;;;;;;5.72;5.20;;;;;;;;;;7313168;19;154426;-14
2022/08/15 07:59:27;;;;;;;10.25;7.05;;;;;;;;;;7312915;19;162701;-15
2022/08/15 08:02:34;;;;;;;11.00;7.85;;;;;;;;;;7312746;19;162917;-14
2022/08/15 08:05:08;;;;;;;13.75;9.00;;;;;;;;;;7311402;19;155013;-14
2022/08/15 08:07:42;;;;;;;17.75;9.15;;;;;;;;;;7313410;19;153879;-13
2022/08/15 08:10:30;;;;;;;15.63;9.55;;;;;;;;;;7313082;19;162207;-13
2022/08/15 08:13:35;;;;;;;12.55;8.93;;;;;;;;;;7311980;19;162963;-15
2022/08/15 08:16:18;;;;;;;16.60;10.63;;;;;;;;;;7312437;19;154510;-14
2022/08/15 08:18:58;;;;;;;15.80;10.48;;;;;;;;;;7311026;19;154457;-14
2022/08/15 08:21:36;;;;;;;16.73;10.52;;;;;;;;;;7312572;19;162272;-13
2022/08/15 08:24:15;;;;;;;16.88;10.85;;;;;;;;;;7310262;19;163274;-14
2022/08/15 08:26:53;;;;;;;18.25;11.07;;;;;;;;;;7310434;19;155094;-14
2022/08/15 08:29:34;;;;;;;16.15;10.60;;;;;;;;;;7313580;19;154079;-14
2022/08/15 08:32:15;;;;;;;17.05;11.68;;;;;;;;;;7311566;19;162744;-14
2022/08/15 08:34:54;;;;;;;20.10;11.00;;;;;;;;;;7313059;19;163253;-14
2022/08/15 08:37:31;;;;;;;16.58;11.35;;;;;;;;;;7313332;19;154738;-14
2022/08/15 08:43:02;;;;;;;16.42;11.38;;;;;;;;;;7310797;19;162249;-14
2022/08/15 08:45:44;;;;;;;15.50;11.13;;;;;;;;;;7311690;19;163496;-14
2022/08/15 08:48:41;;;;;;;17.58;11.40;;;;;;;;;;7311785;19;154974;-14
2022/08/15 08:51:21;;;;;;;16.17;10.43;;;;;;;;;;7310191;19;154192;-14
2022/08/15 08:54:05;;;;;;;18.65;11.05;;;;;;;;;;7311544;19;162338;-14
2022/08/15 08:56:39;;;;;;;17.05;11.98;;;;;;;;;;7310647;19;163167;-13
2022/08/15 08:59:19;;;;;;;19.73;10.57;;;;;;;;;;7311247;19;154839;-13
2022/08/15 09:01:56;;;;;;;14.70;10.32;;;;;;;;;;7311097;19;154118;-14
2022/08/15 09:04:37;;;;;;;15.05;10.07;;;;;;;;;;7309785;19;162209;-14
2022/08/15 09:07:16;;;;;;;17.55;10.32;;;;;;;;;;7310311;19;162796;-13
2022/08/15 09:09:50;;;;;;;17.58;9.88;;;;;;;;;;7312224;19;154422;-14
2022/08/15 09:15:18;;;;;;;16.25;10.10;;;;;;;;;;7311453;19;162243;-14
2022/08/15 09:18:11;;;;;;;15.82;9.52;;;;;;;;;;7311068;19;162818;-15
2022/08/15 09:20:43;;;;;;;11.02;8.48;;;;;;;;;;7311936;19;154970;-14
2022/08/15 09:23:16;;;;;;;13.63;10.15;;;;;;;;;;7311668;19;154272;-14
2022/08/15 09:25:52;;;;;;;;;;;;;;;;;;7311733;19;162338;-14
2022/08/15 09:28:34;;;;;;;15.02;8.82;;;;;;;;;;7309012;19;163014;-13
2022/08/15 09:31:13;;;;;;;13.85;8.02;;;;;;;;;;7311783;19;154488;-14
2022/08/15 09:34:13;;;;;;;14.55;8.00;;;;;;;;;;7310034;19;154426;-14
2022/08/15 09:37:23;;;;;;;13.52;8.98;;;;;;;;;;7311055;19;161801;-14
2022/08/15 09:40:04;;;;;;;10.48;7.82;;;;;;;;;;7310997;19;163422;-14
2022/08/15 09:43:07;;;;;;;13.98;8.30;;;;;;;;;;7311414;19;154368;-14
2022/08/15 09:46:05;;;;;;;11.77;7.35;;;;;;;;;;7308238;19;154549;-14
2022/08/15 09:49:00;;;;;;;13.77;7.93;;;;;;;;;;7308905;19;162308;-15
2022/08/15 09:51:54;;;;;;;12.77;8.25;;;;;;;;;;7315038;19;163449;-14
2022/08/15 09:54:26;;;;;;;9.10;7.10;;;;;;;;;;7318137;19;154385;-19
2022/08/15 09:57:36;;;;;;;11.10;8.38;;;;;;;;;;7317580;19;154596;-14
2022/08/15 10:00:24;;;;;;;12.65;8.05;;;;;;;;;;7317030;19;162354;-14
2022/08/15 10:03:01;;;;;;;12.43;7.75;;;;;;;;;;7317012;19;163772;-14
2022/08/15 10:05:47;;;;;;;10.98;7.47;;;;;;;;;;7314234;19;154602;-14
2022/08/15 10:08:23;;;;;;;13.07;8.85;;;;;;;;;;7315897;19;154446;-14
2022/08/15 10:10:57;;;;;;;15.02;7.68;;;;;;;;;;7315998;19;162656;-14
2022/08/15 10:13:48;;;;;;;17.27;7.60;;;;;;;;;;7315617;19;162812;-13
2022/08/15 10:16:52;;;;;;;18.65;7.65;;;;;;;;;;7313911;19;154491;-13
2022/08/15 10:19:35;;;;;;;10.68;7.25;;;;;;;;;;7313383;19;153740;-14
2022/08/15 10:22:43;;;;;;;12.13;7.05;;;;;;;;;;7313024;19;161925;-14
2022/08/15 10:25:21;;;;;;;12.80;6.97;;;;;;;;;;7313413;19;164043;-14
2022/08/15 10:28:05;;;;;;;14.77;7.68;;;;;;;;;;7314921;19;154432;-14
2022/08/15 10:30:39;;;;;;;15.00;8.43;;;;;;;;;;7316687;19;154304;-13
2022/08/15 10:33:30;;;;;;;13.88;7.57;;;;;;;;;;7316059;19;162357;-13
2022/08/15 10:36:07;;;;;;;12.68;7.70;;;;;;;;;;7316248;19;162904;-13
2022/08/15 10:38:43;;;;;;;16.95;8.35;;;;;;;;;;7315317;19;154364;-14
2022/08/15 10:41:27;;;;;;;13.50;8.25;;;;;;;;;;7314989;19;153974;-13
2022/08/15 10:44:14;;;;;;;11.60;8.68;;;;;;;;;;7314951;19;162145;-14
2022/08/15 10:47:00;;;;;;;11.02;7.55;;;;;;;;;;7314318;19;164336;-14
2022/08/15 10:49:36;;;;;;;9.98;7.63;;;;;;;;;;7314920;19;154417;-13
2022/08/15 10:52:26;;;;;;;12.35;7.95;;;;;;;;;;7312683;19;154363;-13
2022/08/15 10:55:22;;;;;;;13.40;7.57;;;;;;;;;;7310809;19;162304;-13
2022/08/15 10:58:00;;;;;;;11.20;7.40;;;;;;;;;;7314116;19;163136;-13
2022/08/15 11:00:43;;;;;;;11.77;7.95;;;;;;;;;;7314607;19;154438;-14
2022/08/15 11:03:20;;;;;;;17.65;8.52;;;;;;;;;;7315336;19;154373;-14
2022/08/15 11:05:59;;;;;;;14.45;7.43;;;;;;;;;;7307271;19;162369;-14
2022/08/15 11:08:31;;;;;;;14.35;7.20;;;;;;;;;;7310619;19;163091;-14
2022/08/15 11:11:07;;;;;;;10.63;7.57;;;;;;;;;;7310912;19;154989;-15
2022/08/15 11:13:44;;;;;;;12.35;7.20;;;;;;;;;;7313375;19;154108;-14
2022/08/15 11:16:20;;;;;;;10.07;7.22;;;;;;;;;;7315681;19;162863;-14
2022/08/15 11:18:54;;;;;;;14.60;7.03;;;;;;;;;;7312474;19;163148;-14
2022/08/15 11:21:39;;;;;;;14.60;7.28;;;;;;;;;;7315558;19;154395;-15
2022/08/15 11:24:12;;;;;;;14.40;7.35;;;;;;;;;;7315663;19;153989;-14
2022/08/15 11:26:46;;;;;;;13.27;6.93;;;;;;;;;;7311343;19;163348;-15
2022/08/15 11:29:24;;;;;;;14.43;6.97;;;;;;;;;;7314833;19;162847;-14
2022/08/15 11:31:57;;;;;;;7.85;6.90;;;;;;;;;;7314931;19;154381;-16
2022/08/15 11:34:31;;;;;;;12.70;7.15;;;;;;;;;;7314208;19;154005;-16
2022/08/15 11:37:07;;;;;;;15.93;7.18;;;;;;;;;;7312260;19;162270;-15
2022/08/15 11:39:41;;;;;;;9.82;6.68;;;;;;;;;;7313364;19;162798;-15
2022/08/15 11:42:18;;;;;;;9.70;6.47;;;;;;;;;;7313620;19;154718;-16
2022/08/15 11:44:56;;;;;;;12.75;7.13;;;;;;;;;;7311884;19;154378;-15
2022/08/15 11:47:31;;;;;;;10.18;6.95;;;;;;;;;;7313419;19;162291;-15
2022/08/15 11:50:07;;;;;;;14.07;6.88;;;;;;;;;;7313722;19;162891;-15
2022/08/15 11:52:50;;;;;;;11.90;6.75;;;;;;;;;;7314226;19;154929;-16
2022/08/15 11:55:29;;;;;;;10.07;6.70;;;;;;;;;;7314852;19;154232;-15
2022/08/15 11:58:03;;;;;;;7.80;5.85;;;;;;;;;;7312905;19;162640;-15
2022/08/15 12:00:45;;;;;;;8.25;6.00;;;;;;;;;;7315155;19;162954;-15
2022/08/15 12:03:22;;;;;;;9.70;6.50;;;;;;;;;;7314571;19;154379;-16
2022/08/15 12:06:22;;;;;;;9.25;6.47;;;;;;;;;;7313008;19;153941;-15
2022/08/15 12:08:53;;;;;;;8.05;6.05;;;;;;;;;;7313923;19;162350;-15
2022/08/15 12:11:27;;;;;;;10.25;6.55;;;;;;;;;;7312674;19;163023;-16
2022/08/15 12:14:00;;;;;;;11.15;6.85;;;;;;;;;;7313338;19;155299;-16
2022/08/15 12:16:47;;;;;;;7.30;5.85;;;;;;;;;;7313437;19;154547;-15
2022/08/15 12:19:29;;;;;;;11.68;7.22;;;;;;;;;;7312048;19;162695;-16
2022/08/15 12:22:02;;;;;;;12.27;6.88;;;;;;;;;;7312622;19;163444;-15
2022/08/15 12:24:37;;;;;;;10.02;7.50;;;;;;;;;;7313762;19;154955;-16
2022/08/15 12:27:10;;;;;;;11.57;7.60;;;;;;;;;;7309492;19;153891;-15
2022/08/15 12:29:42;;;;;;;;;;;;;;;;;;7313093;19;162707;-15
2022/08/15 12:32:17;;;;;;;12.40;7.90;;;;;;;;;;7312686;19;162901;-15
2022/08/15 12:34:49;;;;;;;14.52;7.00;;;;;;;;;;7311980;19;154748;-14
2022/08/15 12:37:24;;;;;;;12.52;7.57;;;;;;;;;;7313701;19;154058;-16
2022/08/15 12:39:58;;;;;;;10.80;7.40;;;;;;;;;;7312375;19;162518;-14
2022/08/15 12:42:31;;;;;;;10.75;6.97;;;;;;;;;;7312959;19;163285;-14
2022/08/15 12:45:06;;;;;;;10.95;7.28;;;;;;;;;;7314407;19;154522;-14
2022/08/15 12:47:40;;;;;;;8.48;7.32;;;;;;;;;;7309558;19;153879;-14
2022/08/15 12:50:12;;;;;;;11.90;7.28;;;;;;;;;;7313624;19;162313;-13
2022/08/15 12:52:44;;;;;;;14.75;6.75;;;;;;;;;;7311300;19;162764;-14
2022/08/15 12:55:15;;;;;;;12.37;7.30;;;;;;;;;;7311959;19;154681;-15
2022/08/15 12:57:46;;;;;;;12.30;7.20;;;;;;;;;;7311550;19;154099;-15
2022/08/15 13:00:19;;;;;;;13.55;6.95;;;;;;;;;;7312620;19;161798;-14
2022/08/15 13:02:52;;;;;;;17.95;7.40;;;;;;;;;;7311290;19;163277;-15
2022/08/15 13:05:33;;;;;;;12.63;7.15;;;;;;;;;;7312453;19;154433;-14
2022/08/15 13:08:04;;;;;;;13.57;7.13;;;;;;;;;;7312508;19;154723;-14
2022/08/15 13:10:35;;;;;;;12.20;6.85;;;;;;;;;;7308647;19;162408;-15
2022/08/15 13:13:06;;;;;;;15.13;7.63;;;;;;;;;;7311298;19;162817;-15
2022/08/15 13:15:39;;;;;;;17.83;7.57;;;;;;;;;;7312077;19;154855;-15
2022/08/15 13:18:18;;;;;;;13.50;6.90;;;;;;;;;;7310360;19;154743;-15
2022/08/15 13:23:39;;;;;;;13.57;7.88;;;;;;;;;;7310871;19;163300;-14
2022/08/15 13:26:13;;;;;;;15.20;7.25;;;;;;;;;;7309332;19;154462;-14
2022/08/15 13:28:47;;;;;;;15.70;6.38;;;;;;;;;;7309008;19;154638;-14
2022/08/15 13:31:21;;;;;;;16.10;6.95;;;;;;;;;;7310685;19;162328;-15
2022/08/15 13:33:54;;;;;;;15.63;6.68;;;;;;;;;;7310278;19;162897;-14
2022/08/15 13:36:26;;;;;;;16.77;7.65;;;;;;;;;;7311248;19;154528;-14
2022/08/15 13:38:58;;;;;;;10.68;7.63;;;;;;;;;;7311181;19;154051;-14
2022/08/15 13:41:30;;;;;;;18.80;7.97;;;;;;;;;;7311200;19;162652;-14
2022/08/15 13:44:03;;;;;;;12.15;7.00;;;;;;;;;;7311801;19;162818;-14
2022/08/15 13:46:35;;;;;;;9.10;7.03;;;;;;;;;;7308938;19;154595;-14
2022/08/15 13:49:11;;;;;;;9.52;6.20;;;;;;;;;;7311097;19;154143;-13
2022/08/15 13:51:48;;;;;;;13.85;7.15;;;;;;;;;;7310436;19;162667;-14
2022/08/15 13:54:20;;;;;;;11.10;7.47;;;;;;;;;;7310192;19;163549;-14
2022/08/15 13:56:52;;;;;;;11.18;7.50;;;;;;;;;;7309244;19;154723;-14
2022/08/15 13:59:24;;;;;;;10.48;7.10;;;;;;;;;;7310043;19;153945;-15
2022/08/15 14:01:55;;;;;;;11.70;7.07;;;;;;;;;;7310317;19;162683;-14
2022/08/15 14:04:32;;;;;;;9.35;7.22;;;;;;;;;;7308796;19;163345;-14
2022/08/15 14:07:04;;;;;;;15.02;6.57;;;;;;;;;;7308229;19;155191;-15
2022/08/15 14:09:36;;;;;;;9.93;6.97;;;;;;;;;;7310323;19;154414;-15
2022/08/15 14:12:09;;;;;;;14.53;6.97;;;;;;;;;;7309199;19;162416;-14
2022/08/15 14:14:40;;;;;;;;;;;;;;;;;;7310425;19;162750;-15
2022/08/15 14:17:13;;;;;;;8.50;6.10;;;;;;;;;;7310167;19;154680;-14
2022/08/15 14:19:47;;;;;;;;;;;;;;;;;;7309775;19;153692;-15
2022/08/15 14:22:18;;;;;;;15.80;6.55;;;;;;;;;;7309212;19;162831;-14
2022/08/15 14:24:50;;;;;;;10.57;7.22;;;;;;;;;;7309395;19;162863;-15
2022/08/15 14:27:22;;;;;;;14.00;7.60;;;;;;;;;;7307446;19;154401;-16
2022/08/15 14:30:00;;;;;;;11.32;7.07;;;;;;;;;;7309149;19;153927;-15
2022/08/15 14:32:31;;;;;;;11.90;7.47;;;;;;;;;;7309277;19;162322;-14
2022/08/15 14:35:07;;;;;;;11.07;7.55;;;;;;;;;;7308966;19;162715;-14
2022/08/15 14:37:40;;;;;;;10.20;7.43;;;;;;;;;;7309715;19;154842;-14
2022/08/15 14:40:13;;;;;;;14.52;6.88;;;;;;;;;;7316063;19;154389;-14
2022/08/15 14:42:46;;;;;;;14.95;8.05;;;;;;;;;;7316058;19;162294;-14
2022/08/15 14:45:18;;;;;;;12.13;7.57;;;;;;;;;;7316011;19;162871;-14
2022/08/15 14:47:50;;;;;;;12.20;7.67;;;;;;;;;;7314739;19;154856;-14
2022/08/15 14:50:26;;;;;;;12.13;8.00;;;;;;;;;;7316540;19;153952;-14
2022/08/15 14:52:58;;;;;;;13.50;7.15;;;;;;;;;;7315930;19;162159;-14
2022/08/15 14:55:30;;;;;;;10.10;7.72;;;;;;;;;;7315880;19;162842;-14
2022/08/15 14:58:01;;;;;;;10.80;7.75;;;;;;;;;;7316550;19;154509;-14
2022/08/15 15:00:33;;;;;;;12.98;7.22;;;;;;;;;;7316060;19;154050;-14
2022/08/15 15:03:05;;;;;;;12.82;7.63;;;;;;;;;;7315398;19;162224;-14
2022/08/15 15:05:39;;;;;;;11.73;8.65;;;;;;;;;;7315458;19;162865;-14
2022/08/15 15:08:11;;;;;;;10.77;7.68;;;;;;;;;;7314220;19;154499;-14
2022/08/15 15:10:46;;;;;;;10.55;7.82;;;;;;;;;;7315494;19;153974;-15
2022/08/15 15:13:18;;;;;;;13.02;7.80;;;;;;;;;;7315135;19;162698;-14
2022/08/15 15:15:52;;;;;;;12.18;7.90;;;;;;;;;;7314924;19;162780;-15
2022/08/15 15:18:37;;;;;;;13.70;7.47;;;;;;;;;;7315289;19;154796;-14
2022/08/15 15:21:12;;;;;;;11.40;7.72;;;;;;;;;;7315108;19;153949;-15
2022/08/15 15:23:45;;;;;;;10.75;6.93;;;;;;;;;;7315005;19;162232;-14
2022/08/15 15:26:17;;;;;;;10.35;6.80;;;;;;;;;;7314807;19;163334;-14
2022/08/15 15:28:50;;;;;;;12.38;7.22;;;;;;;;;;7312539;19;154445;-14